createdAt,value
2022-10-23T00:01:26.769Z,17.28
2022-10-23T00:03:57.247Z,17.28
2022-10-23T00:06:26.684Z,17.31
2022-10-23T00:08:55.651Z,17.20
2022-10-23T00:11:26.733Z,17.30
2022-10-23T00:13:56.920Z,17.30
2022-10-23T00:16:27.000Z,17.30
2022-10-23T00:18:55.158Z,17.29
2022-10-23T00:21:24.057Z,17.25
2022-10-23T00:23:52.486Z,17.31
2022-10-23T00:26:21.146Z,17.31
2022-10-23T00:28:51.435Z,17.28
2022-10-23T00:31:21.506Z,17.31
2022-10-23T00:33:51.742Z,17.29
2022-10-23T00:36:22.127Z,17.28
2022-10-23T00:38:52.456Z,17.27
2022-10-23T00:41:24.003Z,17.18
2022-10-23T00:44:06.941Z,17.13
2022-10-23T00:46:36.671Z,17.10
2022-10-23T00:49:08.671Z,17.02
2022-10-23T00:51:41.566Z,17.01
2022-10-23T00:54:27.090Z,17.00
2022-10-23T00:57:04.446Z,16.91
2022-10-23T00:59:33.712Z,16.92
2022-10-23T01:02:02.315Z,16.92
2022-10-23T01:04:33.296Z,16.84
2022-10-23T01:07:10.756Z,16.89
2022-10-23T01:09:46.287Z,16.87
2022-10-23T01:12:20.969Z,16.86
2022-10-23T01:15:02.267Z,16.83
2022-10-23T01:17:40.845Z,16.79
2022-10-23T01:20:33.948Z,16.74
2022-10-23T01:23:30.567Z,16.67
2022-10-23T01:26:12.627Z,16.70
2022-10-23T01:28:49.171Z,16.66
2022-10-23T01:31:27.278Z,16.59
2022-10-23T01:34:00.232Z,16.50
2022-10-23T01:36:33.863Z,16.47
2022-10-23T01:39:07.958Z,16.51
2022-10-23T01:41:41.838Z,16.54
2022-10-23T01:44:17.793Z,16.52
2022-10-23T01:46:48.590Z,16.49
2022-10-23T01:49:18.822Z,16.52
2022-10-23T01:51:57.190Z,16.41
2022-10-23T01:54:35.165Z,16.28
2022-10-23T01:57:04.850Z,16.37
2022-10-23T01:59:39.950Z,16.40
2022-10-23T02:02:12.945Z,16.37
2022-10-23T02:04:49.155Z,16.40
2022-10-23T02:07:18.421Z,16.45
2022-10-23T02:09:47.438Z,16.49
2022-10-23T02:12:25.412Z,16.40
2022-10-23T02:14:58.929Z,16.39
2022-10-23T02:17:34.569Z,16.33
2022-10-23T02:20:15.480Z,16.31
2022-10-23T02:22:52.914Z,16.22
2022-10-23T02:25:26.703Z,16.12
2022-10-23T02:27:59.561Z,16.16
2022-10-23T02:30:39.245Z,16.25
2022-10-23T02:33:13.121Z,16.20
2022-10-23T02:35:42.088Z,16.24
2022-10-23T02:38:32.651Z,16.34
2022-10-23T02:41:12.728Z,16.38
2022-10-23T02:43:51.157Z,16.33
2022-10-23T02:46:26.777Z,16.28
2022-10-23T02:49:09.695Z,16.25
2022-10-23T02:51:48.901Z,16.19
2022-10-23T02:54:33.355Z,15.98
2022-10-23T02:57:07.399Z,15.98
2022-10-23T02:59:44.557Z,15.87
2022-10-23T03:02:22.871Z,15.79
2022-10-23T03:04:53.172Z,15.71
2022-10-23T03:07:22.138Z,15.68
2022-10-23T03:09:50.384Z,15.67
2022-10-23T03:12:19.153Z,15.65
2022-10-23T03:14:49.038Z,15.66
2022-10-23T03:17:19.460Z,15.62
2022-10-23T03:19:48.966Z,15.61
2022-10-23T03:22:17.200Z,15.58
2022-10-23T03:24:46.179Z,15.51
2022-10-23T03:27:14.931Z,15.43
2022-10-23T03:29:43.789Z,15.30
2022-10-23T03:32:12.067Z,15.26
2022-10-23T03:34:41.670Z,15.14
2022-10-23T03:37:10.869Z,14.98
2022-10-23T03:39:39.428Z,15.07
2022-10-23T03:42:07.972Z,15.02
2022-10-23T03:44:37.068Z,15.00
2022-10-23T03:47:06.395Z,14.87
2022-10-23T03:49:34.592Z,14.99
2022-10-23T03:52:09.590Z,14.99
2022-10-23T03:54:38.066Z,14.99
2022-10-23T03:57:06.274Z,14.98
2022-10-23T03:59:34.478Z,15.02
2022-10-23T04:02:03.038Z,15.07
2022-10-23T04:04:31.462Z,15.04
2022-10-23T04:07:00.754Z,15.00
2022-10-23T04:09:31.040Z,14.89
2022-10-23T04:11:59.287Z,14.87
2022-10-23T04:14:30.603Z,14.90
2022-10-23T04:17:00.486Z,14.83
2022-10-23T04:19:29.634Z,14.73
2022-10-23T04:21:59.003Z,14.66
2022-10-23T04:24:27.647Z,14.58
2022-10-23T04:26:57.237Z,14.64
2022-10-23T04:29:31.835Z,14.57
2022-10-23T04:32:00.385Z,14.63
2022-10-23T04:34:30.098Z,14.59
2022-10-23T04:36:58.363Z,14.59
2022-10-23T04:39:26.662Z,14.52
2022-10-23T04:41:56.597Z,14.55
2022-10-23T04:44:26.642Z,14.59
2022-10-23T04:46:55.351Z,14.54
2022-10-23T04:49:25.195Z,14.58
2022-10-23T04:52:12.685Z,14.42
2022-10-23T04:55:13.776Z,14.39
2022-10-23T04:57:48.199Z,14.43
2022-10-23T05:00:17.964Z,14.39
2022-10-23T05:02:53.245Z,14.38
2022-10-23T05:05:22.482Z,14.39
2022-10-23T05:08:18.232Z,14.42
2022-10-23T05:11:08.426Z,14.31
2022-10-23T05:13:45.090Z,14.35
2022-10-23T05:16:21.498Z,14.30
2022-10-23T05:18:50.830Z,14.26
2022-10-23T05:21:25.953Z,14.27
2022-10-23T05:23:55.222Z,14.32
2022-10-23T05:26:23.950Z,14.16
2022-10-23T05:28:56.061Z,14.14
2022-10-23T05:31:25.905Z,14.18
2022-10-23T05:33:58.083Z,14.09
2022-10-23T05:36:27.272Z,14.10
2022-10-23T05:39:02.276Z,14.11
2022-10-23T05:41:39.797Z,14.03
2022-10-23T05:44:09.845Z,14.08
2022-10-23T05:47:09.262Z,14.05
2022-10-23T05:50:03.812Z,13.92
2022-10-23T05:53:11.444Z,13.92
2022-10-23T05:55:53.053Z,13.90
2022-10-23T05:58:41.478Z,13.81
2022-10-23T06:01:49.977Z,13.84
2022-10-23T06:04:32.171Z,13.90
2022-10-23T06:07:38.863Z,13.86
2022-10-23T06:10:09.003Z,13.83
2022-10-23T06:12:41.606Z,13.93
2022-10-23T06:15:14.585Z,13.94
2022-10-23T06:18:04.340Z,13.96
2022-10-23T06:20:37.522Z,13.88
2022-10-23T06:23:11.490Z,13.95
2022-10-23T06:26:07.958Z,13.97
2022-10-23T06:28:46.571Z,13.98
2022-10-23T06:31:19.177Z,14.08
2022-10-23T06:33:49.395Z,14.10
2022-10-23T06:36:17.536Z,14.26
2022-10-23T06:38:46.203Z,14.28
2022-10-23T06:41:17.517Z,14.38
2022-10-23T06:43:49.709Z,14.27
2022-10-23T06:46:26.832Z,14.31
2022-10-23T06:49:19.286Z,14.32
2022-10-23T06:51:49.617Z,14.36
2022-10-23T06:54:22.549Z,14.27
2022-10-23T06:57:12.307Z,14.41
2022-10-23T06:59:45.165Z,14.37
2022-10-23T07:02:13.566Z,14.35
2022-10-23T07:04:43.414Z,14.39
2022-10-23T07:07:19.138Z,14.32
2022-10-23T07:09:49.713Z,14.36
2022-10-23T07:12:17.923Z,14.31
2022-10-23T07:14:52.326Z,14.35
2022-10-23T07:17:20.393Z,14.32
2022-10-23T07:19:50.387Z,14.44
2022-10-23T07:22:18.680Z,14.38
2022-10-23T07:24:51.284Z,14.42
2022-10-23T07:27:27.221Z,14.47
2022-10-23T07:29:58.097Z,14.42
2022-10-23T07:32:30.925Z,14.40
2022-10-23T07:35:10.673Z,14.45
2022-10-23T07:37:41.470Z,14.62
2022-10-23T07:40:11.065Z,14.55
2022-10-23T07:42:45.064Z,14.43
2022-10-23T07:45:13.889Z,14.57
2022-10-23T07:47:45.898Z,14.60
2022-10-23T07:50:16.817Z,14.48
2022-10-23T07:52:45.198Z,14.38
2022-10-23T07:55:15.901Z,14.37
2022-10-23T07:57:49.875Z,14.45
2022-10-23T08:00:31.410Z,14.49
2022-10-23T08:03:10.774Z,14.47
2022-10-23T08:05:40.879Z,14.60
2022-10-23T08:08:10.280Z,14.56
2022-10-23T08:10:42.056Z,14.67
2022-10-23T08:13:14.615Z,14.78
2022-10-23T08:15:58.688Z,14.81
2022-10-23T08:18:49.619Z,14.97
2022-10-23T08:21:21.015Z,15.24
2022-10-23T08:23:51.270Z,15.27
2022-10-23T08:26:19.954Z,15.31
2022-10-23T08:28:48.496Z,15.42
2022-10-23T08:31:18.981Z,15.49
2022-10-23T08:34:10.368Z,15.59
2022-10-23T08:36:40.702Z,15.87
2022-10-23T08:39:09.432Z,16.33
2022-10-23T08:41:44.194Z,16.83
2022-10-23T08:44:22.951Z,17.18
2022-10-23T08:47:00.308Z,17.56
2022-10-23T08:49:51.285Z,17.46
2022-10-23T08:52:27.054Z,17.47
2022-10-23T08:55:03.562Z,17.09
2022-10-23T08:57:40.060Z,16.98
2022-10-23T09:00:15.940Z,16.76
2022-10-23T09:02:47.586Z,16.57
2022-10-23T09:05:20.932Z,16.13
2022-10-23T09:08:02.380Z,15.85
2022-10-23T09:10:43.955Z,15.67
2022-10-23T09:13:38.101Z,15.54
2022-10-23T09:16:16.711Z,15.50
2022-10-23T09:18:45.336Z,15.44
2022-10-23T09:21:13.407Z,15.52
2022-10-23T09:23:43.323Z,15.42
2022-10-23T09:26:16.266Z,15.37
2022-10-23T09:28:48.797Z,15.27
2022-10-23T09:31:19.821Z,15.39
2022-10-23T09:33:59.709Z,15.33
2022-10-23T09:36:30.469Z,15.18
2022-10-23T09:39:01.850Z,15.13
2022-10-23T09:41:32.383Z,15.00
2022-10-23T09:44:02.817Z,15.01
2022-10-23T09:46:42.262Z,15.06
2022-10-23T09:49:18.361Z,14.97
2022-10-23T09:51:55.626Z,14.94
2022-10-23T09:54:25.587Z,14.76
2022-10-23T09:56:56.250Z,14.68
2022-10-23T09:59:29.032Z,14.66
2022-10-23T10:01:59.962Z,14.59
2022-10-23T10:04:39.652Z,14.57
2022-10-23T10:07:19.927Z,14.52
2022-10-23T10:09:49.946Z,14.51
2022-10-23T10:12:32.537Z,14.51
2022-10-23T10:15:05.081Z,14.36
2022-10-23T10:17:41.947Z,14.35
2022-10-23T10:20:32.921Z,14.21
2022-10-23T10:23:08.378Z,14.24
2022-10-23T10:25:41.732Z,14.17
2022-10-23T10:28:30.075Z,14.11
2022-10-23T10:31:10.771Z,14.02
2022-10-23T10:33:53.274Z,13.97
2022-10-23T10:36:40.328Z,13.89
2022-10-23T10:39:18.764Z,13.98
2022-10-23T10:41:58.050Z,14.02
2022-10-23T10:44:43.704Z,14.07
2022-10-23T10:47:21.181Z,14.09
2022-10-23T10:50:02.117Z,14.07
2022-10-23T10:52:49.280Z,14.03
2022-10-23T10:55:26.316Z,14.03
2022-10-23T10:58:01.044Z,14.05
2022-10-23T11:00:32.397Z,14.03
2022-10-23T11:03:03.883Z,13.83
2022-10-23T11:05:34.152Z,13.77
2022-10-23T11:08:07.499Z,13.73
2022-10-23T11:10:40.326Z,13.71
2022-10-23T11:13:26.148Z,13.79
2022-10-23T11:15:59.179Z,13.76
2022-10-23T11:18:31.076Z,13.77
2022-10-23T11:21:09.810Z,13.90
2022-10-23T11:24:19.426Z,14.06
2022-10-23T11:27:02.117Z,14.12
2022-10-23T11:30:14.094Z,14.29
2022-10-23T11:33:07.251Z,14.43
2022-10-23T11:35:54.751Z,14.47
2022-10-23T11:38:28.126Z,14.59
2022-10-23T11:40:59.458Z,14.94
2022-10-23T11:43:29.534Z,15.08
2022-10-23T11:45:59.686Z,15.23
2022-10-23T11:48:40.782Z,15.39
2022-10-23T11:51:28.415Z,15.66
2022-10-23T11:54:24.431Z,15.60
2022-10-23T11:57:09.253Z,15.77
2022-10-23T11:59:52.829Z,15.64
2022-10-23T12:02:31.999Z,15.80
2022-10-23T12:05:05.855Z,15.86
2022-10-23T12:07:37.889Z,15.97
2022-10-23T12:10:09.466Z,15.94
2022-10-23T12:12:41.017Z,15.90
2022-10-23T12:15:24.858Z,15.79
2022-10-23T12:17:56.111Z,15.60
2022-10-23T12:20:40.772Z,15.57
2022-10-23T12:23:22.885Z,15.31
2022-10-23T12:26:07.741Z,15.03
2022-10-23T12:28:41.845Z,14.86
2022-10-23T12:31:26.621Z,14.69
2022-10-23T12:34:06.709Z,14.69
2022-10-23T12:36:52.709Z,14.60
2022-10-23T12:39:30.299Z,14.56
2022-10-23T12:42:02.314Z,14.77
2022-10-23T12:44:30.672Z,14.92
2022-10-23T12:47:03.122Z,14.89
2022-10-23T12:49:35.630Z,14.86
2022-10-23T12:52:06.304Z,14.84
2022-10-23T12:54:41.100Z,14.78
2022-10-23T12:57:21.541Z,14.82
2022-10-23T12:59:50.919Z,14.92
2022-10-23T13:02:24.693Z,15.14
2022-10-23T13:04:56.228Z,15.31
2022-10-23T13:07:27.019Z,15.40
2022-10-23T13:09:59.256Z,15.39
2022-10-23T13:12:31.996Z,15.28
2022-10-23T13:15:03.665Z,15.37
2022-10-23T13:17:36.814Z,15.43
2022-10-23T13:20:27.532Z,15.38
2022-10-23T13:23:01.119Z,15.14
2022-10-23T13:25:32.329Z,15.16
2022-10-23T13:28:14.923Z,15.06
2022-10-23T13:30:46.434Z,15.04
2022-10-23T13:33:24.953Z,15.04
2022-10-23T13:35:58.562Z,15.01
2022-10-23T13:38:32.851Z,15.05
2022-10-23T13:41:03.203Z,15.18
2022-10-23T13:43:33.086Z,15.10
2022-10-23T13:46:02.492Z,15.02
2022-10-23T13:48:31.101Z,15.03
2022-10-23T13:51:13.644Z,15.13
2022-10-23T13:53:41.638Z,15.06
2022-10-23T13:56:12.891Z,15.03
2022-10-23T13:58:42.122Z,15.08
2022-10-23T14:01:21.744Z,14.97
2022-10-23T14:03:50.276Z,15.02
2022-10-23T14:06:20.959Z,15.06
2022-10-23T14:08:49.811Z,15.17
2022-10-23T14:11:21.137Z,15.22
2022-10-23T14:13:50.201Z,15.17
2022-10-23T14:16:21.370Z,14.93
2022-10-23T14:18:50.517Z,14.65
2022-10-23T14:21:22.455Z,14.56
2022-10-23T14:23:52.778Z,14.71
2022-10-23T14:26:27.653Z,14.78
2022-10-23T14:29:00.653Z,14.89
2022-10-23T14:31:33.674Z,14.95
2022-10-23T14:34:01.980Z,15.08
2022-10-23T14:36:43.132Z,15.13
2022-10-23T14:39:19.113Z,15.35
2022-10-23T14:41:48.719Z,15.55
2022-10-23T14:44:18.035Z,15.59
2022-10-23T14:46:46.324Z,15.58
2022-10-23T14:49:15.102Z,15.63
2022-10-23T14:51:45.129Z,15.62
2022-10-23T14:54:13.573Z,15.63
2022-10-23T14:56:42.010Z,15.51
2022-10-23T14:59:11.770Z,15.57
2022-10-23T15:01:45.270Z,15.55
2022-10-23T15:04:15.240Z,15.48
2022-10-23T15:06:47.238Z,15.62
2022-10-23T15:09:15.984Z,15.73
2022-10-23T15:11:44.157Z,15.90
2022-10-23T15:14:12.509Z,15.91
2022-10-23T15:16:42.529Z,16.07
2022-10-23T15:19:15.222Z,15.98
2022-10-23T15:21:50.062Z,15.95
2022-10-23T15:24:18.886Z,15.98
2022-10-23T15:26:47.073Z,15.87
2022-10-23T15:29:16.077Z,15.83
2022-10-23T15:31:48.848Z,15.84
2022-10-23T15:34:19.834Z,15.79
2022-10-23T15:36:50.396Z,15.70
2022-10-23T15:39:21.067Z,15.60
2022-10-23T15:41:54.219Z,15.64
2022-10-23T15:44:24.156Z,15.66
2022-10-23T15:46:53.805Z,15.60
2022-10-23T15:49:22.297Z,15.72
2022-10-23T15:51:52.336Z,15.64
2022-10-23T15:54:21.877Z,15.62
2022-10-23T15:56:51.545Z,15.63
2022-10-23T15:59:24.608Z,15.60
2022-10-23T16:01:53.129Z,15.64
2022-10-23T16:04:21.526Z,15.70
2022-10-23T16:06:51.984Z,15.80
2022-10-23T16:09:20.276Z,15.72
2022-10-23T16:11:48.574Z,15.73
2022-10-23T16:14:19.611Z,15.69
2022-10-23T16:16:48.571Z,15.81
2022-10-23T16:19:17.510Z,15.78
2022-10-23T16:21:46.676Z,15.73
2022-10-23T16:24:16.424Z,15.82
2022-10-23T16:26:50.253Z,15.84
2022-10-23T16:29:18.627Z,15.89
2022-10-23T16:31:47.354Z,15.91
2022-10-23T16:34:15.645Z,15.85
2022-10-23T16:36:45.261Z,15.87
2022-10-23T16:39:33.950Z,15.77
2022-10-23T16:42:21.007Z,15.78
2022-10-23T16:45:12.096Z,15.72
2022-10-23T16:47:40.478Z,15.74
2022-10-23T16:50:09.175Z,15.69
2022-10-23T16:52:37.638Z,15.76
2022-10-23T16:55:08.280Z,15.70
2022-10-23T16:57:36.902Z,15.69
2022-10-23T17:00:06.070Z,15.66
2022-10-23T17:02:35.138Z,15.64
2022-10-23T17:05:04.988Z,15.70
2022-10-23T17:07:34.057Z,15.69
2022-10-23T17:10:02.814Z,15.69
2022-10-23T17:12:32.885Z,15.66
2022-10-23T17:15:01.794Z,15.67
2022-10-23T17:17:30.252Z,15.61
2022-10-23T17:19:58.457Z,15.61
2022-10-23T17:22:27.825Z,15.56
2022-10-23T17:24:56.646Z,15.47
2022-10-23T17:27:24.812Z,15.52
2022-10-23T17:29:54.953Z,15.55
2022-10-23T17:32:23.248Z,15.58
2022-10-23T17:34:51.439Z,15.62
2022-10-23T17:37:19.629Z,15.61
2022-10-23T17:39:47.848Z,15.60
2022-10-23T17:42:16.362Z,15.50
2022-10-23T17:44:44.898Z,15.48
2022-10-23T17:47:15.672Z,15.51
2022-10-23T17:49:45.478Z,15.43
2022-10-23T17:52:15.252Z,15.44
2022-10-23T17:54:43.437Z,15.39
2022-10-23T17:57:12.105Z,15.41
2022-10-23T17:59:40.635Z,15.51
2022-10-23T18:02:09.274Z,15.47
2022-10-23T18:04:39.307Z,15.46
2022-10-23T18:07:07.578Z,15.51
2022-10-23T18:09:36.414Z,15.49
2022-10-23T18:12:06.277Z,15.44
2022-10-23T18:14:37.309Z,15.43
2022-10-23T18:17:06.128Z,15.41
2022-10-23T18:19:34.814Z,15.47
2022-10-23T18:22:04.728Z,15.47
2022-10-23T18:24:33.448Z,15.44
2022-10-23T18:27:01.950Z,15.49
2022-10-23T18:29:30.167Z,15.42
2022-10-23T18:31:58.402Z,15.47
2022-10-23T18:34:27.813Z,15.48
2022-10-23T18:36:57.833Z,15.42
2022-10-23T18:39:27.694Z,15.47
2022-10-23T18:41:59.240Z,15.45
2022-10-23T18:44:29.839Z,15.46
2022-10-23T18:46:59.255Z,15.50
2022-10-23T18:49:28.861Z,15.50
2022-10-23T18:51:58.396Z,15.51
2022-10-23T18:54:28.082Z,15.55
2022-10-23T18:56:56.632Z,15.50
2022-10-23T18:59:24.889Z,15.56
2022-10-23T19:01:53.501Z,15.45
2022-10-23T19:04:21.958Z,15.46
2022-10-23T19:06:52.209Z,15.43
2022-10-23T19:09:21.097Z,15.44
2022-10-23T19:11:51.004Z,15.45
2022-10-23T19:14:19.297Z,15.46
2022-10-23T19:16:58.756Z,15.40
2022-10-23T19:19:31.010Z,15.43
2022-10-23T19:21:59.810Z,15.49
2022-10-23T19:24:33.706Z,15.48
2022-10-23T19:27:04.647Z,15.47
2022-10-23T19:29:33.676Z,15.48
2022-10-23T19:32:01.889Z,15.47
2022-10-23T19:34:30.430Z,15.38
2022-10-23T19:36:58.584Z,15.43
2022-10-23T19:39:26.878Z,15.37
2022-10-23T19:41:55.389Z,15.47
2022-10-23T19:44:25.140Z,15.53
2022-10-23T19:46:53.600Z,15.51
2022-10-23T19:49:23.978Z,15.41
2022-10-23T19:51:52.221Z,15.35
2022-10-23T19:54:20.885Z,15.33
2022-10-23T19:56:49.998Z,15.34
2022-10-23T19:59:18.988Z,15.36
2022-10-23T20:01:49.370Z,15.36
2022-10-23T20:04:18.545Z,15.30
2022-10-23T20:06:47.415Z,15.27
2022-10-23T20:09:15.668Z,15.20
2022-10-23T20:11:45.477Z,15.23
2022-10-23T20:14:14.472Z,15.24
2022-10-23T20:16:45.118Z,15.20
2022-10-23T20:21:48.301Z,15.09
2022-10-23T20:24:18.867Z,15.11
2022-10-23T20:26:49.710Z,15.06
2022-10-23T20:29:18.005Z,15.07
2022-10-23T20:31:46.205Z,15.02
2022-10-23T20:34:16.100Z,15.10
2022-10-23T20:36:47.039Z,15.16
2022-10-23T20:39:18.205Z,15.16
2022-10-23T20:41:46.901Z,15.10
2022-10-23T20:46:51.886Z,15.06
2022-10-23T20:49:22.085Z,15.00
2022-10-23T20:51:55.082Z,14.97
2022-10-23T20:54:24.745Z,14.98
2022-10-23T20:56:52.954Z,14.94
2022-10-23T20:59:21.616Z,14.99
2022-10-23T21:01:53.103Z,14.91
2022-10-23T21:04:27.845Z,14.96
2022-10-23T21:07:13.808Z,14.94
2022-10-23T21:09:42.484Z,14.96
2022-10-23T21:12:10.830Z,15.00
2022-10-23T21:14:39.016Z,14.99
2022-10-23T21:17:08.592Z,14.96
2022-10-23T21:19:39.141Z,14.95
2022-10-23T21:22:07.567Z,15.01
2022-10-23T21:24:35.799Z,15.05
2022-10-23T21:27:04.434Z,15.05
2022-10-23T21:29:32.911Z,15.04
2022-10-23T21:32:02.268Z,15.01
2022-10-23T21:34:31.481Z,14.99
2022-10-23T21:37:17.669Z,14.94
2022-10-23T21:39:47.188Z,14.92
2022-10-23T21:42:16.981Z,14.83
2022-10-23T21:44:45.795Z,14.83
2022-10-23T21:47:14.245Z,14.85
2022-10-23T21:49:44.116Z,14.90
2022-10-23T21:52:16.204Z,14.91
2022-10-23T21:54:47.176Z,14.93
2022-10-23T21:57:16.357Z,14.93
2022-10-23T21:59:45.177Z,15.04
2022-10-23T22:02:14.771Z,15.09
2022-10-23T22:04:43.225Z,15.10
2022-10-23T22:07:14.912Z,15.13
2022-10-23T22:09:45.037Z,15.10
2022-10-23T22:12:13.429Z,15.12
2022-10-23T22:14:42.549Z,15.11
2022-10-23T22:17:11.024Z,14.99
2022-10-23T22:19:39.229Z,14.95
2022-10-23T22:22:07.433Z,14.88
2022-10-23T22:24:36.949Z,14.83
2022-10-23T22:27:06.635Z,14.84
2022-10-23T22:29:35.109Z,14.79
2022-10-23T22:32:03.773Z,14.77
2022-10-23T22:34:52.229Z,14.68
2022-10-23T22:37:20.873Z,14.67
2022-10-23T22:40:14.411Z,14.62
2022-10-23T22:42:49.390Z,14.56
2022-10-23T22:45:17.864Z,14.53
2022-10-23T22:47:46.110Z,14.47
2022-10-23T22:50:14.487Z,14.55
2022-10-23T22:52:42.906Z,14.57
2022-10-23T22:55:12.029Z,14.68
2022-10-23T22:57:40.198Z,14.68
2022-10-23T23:00:12.089Z,14.69
2022-10-23T23:02:40.596Z,14.71
2022-10-23T23:05:12.132Z,14.71
2022-10-23T23:07:40.702Z,14.69
2022-10-23T23:10:09.630Z,14.67
2022-10-23T23:12:38.233Z,14.73
2022-10-23T23:15:07.399Z,14.77
2022-10-23T23:17:41.999Z,14.78
2022-10-23T23:20:11.299Z,14.72
2022-10-23T23:22:39.792Z,14.73
2022-10-23T23:25:10.644Z,14.72
2022-10-23T23:27:40.342Z,14.65
2022-10-23T23:30:10.438Z,14.64
2022-10-23T23:32:40.019Z,14.58
2022-10-23T23:35:08.625Z,14.55
2022-10-23T23:37:36.864Z,14.53
2022-10-23T23:40:05.978Z,14.51
2022-10-23T23:42:34.485Z,14.52
2022-10-23T23:45:14.296Z,14.58
2022-10-23T23:47:44.860Z,14.63
2022-10-23T23:50:13.963Z,14.68
2022-10-23T23:52:42.373Z,14.69
2022-10-23T23:55:11.409Z,14.75
2022-10-23T23:57:39.850Z,14.81
